»·PEaware :: N12529 KLAX-KSAN

N12529 :: KLAX-KSAN

FLIGHT INFORMATION

Flight Status: Arrived
Operator: Privately registered:
United States
More flights under this callsign
Pilot: Eduardo Elias G. (24838)
Aircraft: CESSNA 172 SKYHAWK
(C172)
More flights by this aircraft type
Origin: KLAX Los Angeles Intl
United States
Destination: KSAN San Diego Intl-Lindbergh
United States
More flights between these airports :: More routes between these airports
Route: DCT
File this flight plan on PilotEdge
Remarks: CAT-11 rating
Altitude:
(Current/Filed)
5,500ft
Speed:
(Current/Filed)
125kts
Departed: 02-Dec-19 09:42 PM
Arrived: 02-Dec-19 10:35 PM
Distance/Time
Traveled:
95nm/0:53
Distance/Time
To Go:
Arrived

Flight Plot

Page will automatically refresh every two minutes.

Flight plan parsing failed; only flown route is shown


Map Options




Map Legend


Flown Route
Filed Route
Departure Airport
Arrival Airport
Navaid (VOR, NDB)
Fix

Horizontal Profiles

Position Reports

Time Latitude Longitude Heading Altitude Ground
Speed
02-Dec-19 21:23 33.932378 -118.399715 82 129ft 0kts
02-Dec-19 21:24 33.932378 -118.399715 82 129ft 0kts
02-Dec-19 21:25 33.932378 -118.399715 82 129ft 0kts
02-Dec-19 21:26 33.932378 -118.399715 82 129ft 0kts
02-Dec-19 21:27 33.932378 -118.399715 82 129ft 0kts
02-Dec-19 21:28 33.932378 -118.399715 82 129ft 0kts
02-Dec-19 21:29 33.932378 -118.399715 82 129ft 0kts
02-Dec-19 21:30 33.932378 -118.399715 82 129ft 0kts
02-Dec-19 21:31 33.932378 -118.399715 82 129ft 0kts
02-Dec-19 21:32 33.932379 -118.399701 82 129ft 0kts
02-Dec-19 21:33 33.932380 -118.399697 82 129ft 0kts
02-Dec-19 21:34 33.932380 -118.399692 82 129ft 0kts
02-Dec-19 21:35 33.933408 -118.399173 5 129ft 5kts
02-Dec-19 21:36 33.934599 -118.397814 81 129ft 10kts
02-Dec-19 21:37 33.935129 -118.392374 84 129ft 20kts
02-Dec-19 21:38 33.935932 -118.384649 83 129ft 23kts
02-Dec-19 21:39 33.936260 -118.383007 40 129ft 0kts
02-Dec-19 21:40 33.936261 -118.383006 40 129ft 0kts
02-Dec-19 21:41 33.937069 -118.385586 262 129ft 50kts
02-Dec-19 21:42 33.935909 -118.407699 267 782ft 77kts
02-Dec-19 21:43 33.925751 -118.425668 173 1608ft 69kts
02-Dec-19 21:44 33.906976 -118.423508 172 2336ft 73kts
02-Dec-19 21:45 33.888429 -118.408662 143 2960ft 86kts
02-Dec-19 21:46 33.864154 -118.387397 143 3001ft 118kts
02-Dec-19 21:47 33.840565 -118.362783 134 3410ft 105kts
02-Dec-19 21:48 33.820779 -118.338031 134 3921ft 101kts
02-Dec-19 21:49 33.801594 -118.313751 134 4425ft 99kts
02-Dec-19 21:50 33.784179 -118.287170 125 4779ft 111kts
02-Dec-19 21:51 33.764966 -118.254797 136 4800ft 122kts
02-Dec-19 21:52 33.741233 -118.226760 136 5030ft 109kts
02-Dec-19 21:53 33.719639 -118.203669 140 5482ft 106kts
02-Dec-19 21:54 33.695146 -118.178223 140 5514ft 120kts
02-Dec-19 21:55 33.670045 -118.151127 132 5520ft 124kts
02-Dec-19 21:56 33.646989 -118.119455 132 5520ft 124kts
02-Dec-19 21:57 33.624144 -118.088068 132 5519ft 124kts
02-Dec-19 21:58 33.601366 -118.056774 132 5520ft 124kts
02-Dec-19 21:59 33.578583 -118.025482 132 5519ft 124kts
02-Dec-19 22:00 33.555726 -117.994123 132 5519ft 124kts
02-Dec-19 22:01 33.532871 -117.962772 132 5519ft 124kts
02-Dec-19 22:02 33.510270 -117.931799 132 5519ft 124kts
02-Dec-19 22:03 33.487224 -117.900261 132 5519ft 124kts
02-Dec-19 22:04 33.463366 -117.869860 134 5520ft 125kts
02-Dec-19 22:05 33.438381 -117.841071 136 5520ft 125kts
02-Dec-19 22:06 33.413141 -117.812310 136 5519ft 124kts
02-Dec-19 22:07 33.388004 -117.783712 136 5519ft 124kts
02-Dec-19 22:08 33.362789 -117.755059 136 5519ft 124kts
02-Dec-19 22:09 33.337642 -117.726492 136 5519ft 124kts
02-Dec-19 22:10 33.312492 -117.697931 136 5519ft 124kts
02-Dec-19 22:11 33.287299 -117.669282 136 5519ft 124kts
02-Dec-19 22:12 33.262180 -117.640740 136 5519ft 124kts
02-Dec-19 22:13 33.237051 -117.612227 136 5519ft 124kts
02-Dec-19 22:14 33.211782 -117.583532 136 5519ft 124kts
02-Dec-19 22:15 33.186669 -117.554998 136 5519ft 124kts
02-Dec-19 22:16 33.161500 -117.526444 136 5519ft 124kts
02-Dec-19 22:17 33.135537 -117.497111 136 5258ft 136kts
02-Dec-19 22:18 33.107846 -117.466027 136 4857ft 136kts
02-Dec-19 22:19 33.080344 -117.434831 136 4461ft 136kts
02-Dec-19 22:20 33.053402 -117.403942 136 4049ft 130kts
02-Dec-19 22:21 33.027656 -117.374423 136 3629ft 127kts
02-Dec-19 22:22 33.002924 -117.345970 136 3495ft 123kts
02-Dec-19 22:23 32.978109 -117.317310 136 3492ft 124kts
02-Dec-19 22:24 32.948347 -117.296010 152 3492ft 126kts
02-Dec-19 22:25 32.916915 -117.276992 152 3492ft 126kts
02-Dec-19 22:26 32.885444 -117.258068 152 3491ft 126kts
02-Dec-19 22:27 32.854011 -117.239115 152 3491ft 126kts
02-Dec-19 22:28 32.822333 -117.219900 152 3355ft 127kts
02-Dec-19 22:29 32.791519 -117.201054 148 3034ft 123kts
02-Dec-19 22:30 32.779393 -117.165203 127 2897ft 111kts
02-Dec-19 22:31 32.754333 -117.157929 183 2667ft 74kts
02-Dec-19 22:32 32.733315 -117.161731 211 1312ft 83kts
02-Dec-19 22:33 32.732124 -117.183935 285 30ft 53kts
02-Dec-19 22:34 32.733547 -117.186909 20 18ft 0kts
02-Dec-19 22:35 32.732821 -117.182752 98 18ft 20kts
02-Dec-19 22:36 32.733338 -117.181745 15 18ft 0kts
02-Dec-19 22:37 32.733340 -117.181744 15 18ft 0kts
02-Dec-19 22:38 32.733340 -117.181744 15 18ft 0kts
02-Dec-19 22:39 32.733340 -117.181744 15 18ft 0kts

Navigation Log

Ident Type
Flight plan parsing failed, navigation log unavailable